Time;durP1;ratioP1;P1;durP2;ratioP2;P2;SDS_P1;SDS_P2;PMS_P1;PMS_P2;Temp;Humidity;BMP_temperature;BMP_pressure;BME280_temperature;BME280_humidity;BME280_pressure;Samples;Min_cycle;Max_cycle;Signal;HPM_P1;HPM_P2
2022/09/07 00:02:21;;;;;;;4.95;3.00;;;20.20;95.10;;;;;;5052161;28;20075;-69
2022/09/07 00:04:46;;;;;;;4.70;2.97;;;20.10;95.50;;;;;;5052285;28;20116;-69
2022/09/07 00:07:12;;;;;;;4.28;3.35;;;20.20;95.60;;;;;;5051828;28;20476;-70
2022/09/07 00:09:38;;;;;;;7.13;3.17;;;20.10;95.80;;;;;;5052052;28;20029;-69
2022/09/07 00:12:04;;;;;;;6.60;3.00;;;20.10;96.00;;;;;;5051767;28;20025;-69
2022/09/07 00:14:30;;;;;;;5.57;3.38;;;20.10;96.30;;;;;;5051488;28;20362;-69
2022/09/07 00:26:13;;;;;;;4.10;3.13;;;20.00;96.60;;;;;;5327691;23;20062;-69
2022/09/07 00:28:39;;;;;;;3.70;3.03;;;20.00;96.90;;;;;;5032421;28;20029;-68
2022/09/07 00:31:10;;;;;;;5.20;3.10;;;20.10;96.70;;;;;;5031726;28;20033;-68
2022/09/07 00:33:36;;;;;;;5.25;3.25;;;20.10;97.00;;;;;;5034374;28;20044;-69
2022/09/07 00:36:02;;;;;;;3.53;2.85;;;20.00;97.00;;;;;;5034968;28;20045;-68
2022/09/07 00:38:27;;;;;;;6.53;2.75;;;20.00;97.20;;;;;;5035143;28;20033;-68
2022/09/07 00:40:53;;;;;;;6.20;3.20;;;20.00;96.90;;;;;;5034962;28;20083;-69
2022/09/07 00:43:38;;;;;;;6.40;3.10;;;20.00;97.00;;;;;;5035206;28;20021;-68
2022/09/07 00:46:05;;;;;;;4.15;2.92;;;20.00;97.10;;;;;;5034745;28;20393;-68
2022/09/07 00:48:50;;;;;;;4.00;3.60;;;20.00;97.10;;;;;;5035367;28;20030;-69
2022/09/07 00:51:52;;;;;;;4.03;3.10;;;19.90;97.50;;;;;;5035177;28;20034;-69
2022/09/07 00:54:23;;;;;;;5.70;3.63;;;19.90;97.60;;;;;;5035337;28;20113;-69
2022/09/07 00:56:51;;;;;;;4.38;3.63;;;19.90;97.50;;;;;;5033563;28;20026;-68
2022/09/07 00:59:23;;;;;;;4.10;3.35;;;19.90;97.50;;;;;;5035060;28;20041;-69
2022/09/07 01:01:49;;;;;;;5.25;3.22;;;19.80;98.10;;;;;;5034979;28;20028;-68
2022/09/07 01:04:15;;;;;;;4.10;3.55;;;19.80;98.00;;;;;;5034597;28;20029;-69
2022/09/07 01:06:42;;;;;;;4.05;3.30;;;19.70;98.00;;;;;;5034847;28;20489;-69
2022/09/07 01:09:14;;;;;;;4.88;3.75;;;19.70;98.20;;;;;;5034607;28;20025;-69
2022/09/07 01:11:42;;;;;;;5.43;3.88;;;19.70;98.40;;;;;;5035118;28;20065;-69
2022/09/07 01:14:10;;;;;;;3.75;3.40;;;19.70;98.60;;;;;;5034030;28;20037;-69
2022/09/07 01:16:54;;;;;;;5.72;3.95;;;19.70;98.50;;;;;;5034599;28;20500;-69
2022/09/07 01:19:48;;;;;;;4.65;3.60;;;19.60;98.70;;;;;;5034665;28;20112;-69
2022/09/07 01:22:33;;;;;;;4.88;3.90;;;19.60;98.70;;;;;;5034206;28;20026;-69
2022/09/07 01:25:11;;;;;;;4.90;3.65;;;19.60;98.90;;;;;;5033889;28;20033;-69
2022/09/07 01:28:12;;;;;;;4.68;3.90;;;19.50;99.10;;;;;;5034627;28;20029;-69
2022/09/07 01:30:40;;;;;;;5.60;3.60;;;19.50;99.00;;;;;;4954145;29;20030;-68
2022/09/07 01:33:44;;;;;;;4.47;3.70;;;19.50;99.10;;;;;;5018736;28;20118;-68
2022/09/07 01:36:27;;;;;;;4.32;3.92;;;19.50;99.30;;;;;;5033940;28;20094;-69
2022/09/07 01:38:57;;;;;;;4.82;3.63;;;19.50;99.10;;;;;;5033898;28;20017;-69
2022/09/07 01:41:29;;;;;;;4.88;3.78;;;19.50;99.40;;;;;;5034314;28;20022;-68
2022/09/07 01:44:18;;;;;;;5.22;4.25;;;19.50;99.40;;;;;;5033185;28;20025;-68
2022/09/07 01:47:08;;;;;;;5.43;4.00;;;19.40;99.80;;;;;;5034414;28;20033;-69
2022/09/07 01:49:39;;;;;;;4.25;3.85;;;19.40;99.90;;;;;;5033324;28;20084;-69
2022/09/07 01:52:21;;;;;;;4.70;3.53;;;19.30;99.90;;;;;;5033496;28;20025;-69
2022/09/07 01:54:54;;;;;;;5.45;3.80;;;19.30;99.90;;;;;;5033990;28;20033;-68
2022/09/07 01:57:31;;;;;;;3.92;3.45;;;19.30;99.90;;;;;;5033672;28;20021;-69
2022/09/07 02:00:09;;;;;;;5.05;4.10;;;19.30;99.90;;;;;;5033325;28;20025;-69
2022/09/07 02:02:48;;;;;;;4.05;3.65;;;19.30;99.90;;;;;;5032933;28;20029;-68
2022/09/07 02:05:19;;;;;;;4.35;3.80;;;19.30;99.90;;;;;;5032808;28;20350;-69
2022/09/07 02:07:54;;;;;;;5.18;4.60;;;19.20;99.90;;;;;;5033067;28;20062;-68
2022/09/07 02:10:31;;;;;;;5.15;3.78;;;19.20;99.90;;;;;;5031705;28;20069;-68
2022/09/07 02:13:00;;;;;;;5.13;4.45;;;19.30;99.90;;;;;;5032209;28;20501;-69
2022/09/07 02:16:03;;;;;;;5.70;3.67;;;19.30;99.90;;;;;;5032889;28;20037;-69
2022/09/07 02:18:38;;;;;;;5.35;4.32;;;19.20;99.90;;;;;;5014339;28;20033;-69
2022/09/07 02:21:07;;;;;;;7.40;4.38;;;19.20;99.90;;;;;;5032903;28;20029;-69
2022/09/07 02:23:45;;;;;;;4.20;3.47;;;19.20;99.90;;;;;;5033052;28;20026;-69
2022/09/07 02:26:16;;;;;;;4.82;4.07;;;19.20;99.90;;;;;;5033112;28;20049;-69
2022/09/07 02:28:42;;;;;;;5.78;4.25;;;19.10;99.90;;;;;;5033658;28;20091;-69
2022/09/07 02:31:08;;;;;;;5.72;4.05;;;19.10;99.90;;;;;;5032631;28;20466;-69
2022/09/07 02:33:34;;;;;;;5.60;4.00;;;19.10;99.90;;;;;;5033566;28;20029;-69
2022/09/07 02:36:01;;;;;;;4.70;4.22;;;19.00;99.90;;;;;;5032879;28;20113;-70
2022/09/07 02:38:26;;;;;;;4.00;3.60;;;19.10;99.90;;;;;;5032957;28;20052;-69
2022/09/07 02:40:58;;;;;;;4.63;3.90;;;19.00;99.90;;;;;;5033126;28;20060;-69
2022/09/07 02:43:26;;;;;;;4.75;4.20;;;19.00;99.90;;;;;;5033291;28;20367;-69
2022/09/07 02:46:01;;;;;;;4.72;4.10;;;19.00;99.90;;;;;;5033000;28;20029;-69
2022/09/07 02:48:37;;;;;;;8.75;4.82;;;19.00;99.90;;;;;;5033137;28;20378;-69
2022/09/07 02:51:30;;;;;;;6.22;4.75;;;18.90;99.90;;;;;;5032535;28;20033;-69
2022/09/07 02:54:08;;;;;;;5.13;4.20;;;19.00;99.90;;;;;;5024670;28;20068;-69
2022/09/07 02:56:37;;;;;;;5.30;4.80;;;18.90;99.90;;;;;;5032515;28;20425;-69
2022/09/07 02:59:17;;;;;;;7.18;4.47;;;18.90;99.90;;;;;;5032454;28;20030;-70
2022/09/07 03:02:00;;;;;;;6.57;4.78;;;18.80;99.90;;;;;;5032460;28;20373;-69
2022/09/07 03:04:53;;;;;;;6.47;4.47;;;18.80;99.90;;;;;;5032470;28;20044;-69
2022/09/07 03:07:26;;;;;;;5.65;4.82;;;18.80;99.90;;;;;;5029849;28;20165;-69
2022/09/07 03:09:55;;;;;;;6.38;4.88;;;18.80;99.90;;;;;;5014883;28;20036;-69
2022/09/07 03:12:21;;;;;;;5.32;4.82;;;18.80;99.90;;;;;;5012351;28;20033;-69
2022/09/07 03:14:47;;;;;;;6.45;5.38;;;18.80;99.90;;;;;;5017623;28;20109;-69
2022/09/07 03:30:45;;;;;;;6.90;5.43;;;18.70;99.90;;;;;;5277973;22;20484;-70
2022/09/07 03:33:14;;;;;;;6.85;5.45;;;18.60;99.90;;;;;;5092863;28;20040;-70
2022/09/07 03:35:41;;;;;;;6.45;5.30;;;18.60;99.90;;;;;;5091493;28;20090;-70
2022/09/07 03:38:07;;;;;;;7.95;6.00;;;18.60;99.90;;;;;;5089756;28;20024;-70
2022/09/07 03:40:32;;;;;;;7.20;5.18;;;18.60;99.90;;;;;;5091300;28;20466;-70
2022/09/07 03:42:58;;;;;;;7.18;5.70;;;18.60;99.90;;;;;;5091032;28;20530;-70
2022/09/07 03:45:24;;;;;;;6.00;5.22;;;18.60;99.90;;;;;;5091393;28;20030;-70
2022/09/07 03:47:50;;;;;;;6.47;5.25;;;18.60;99.90;;;;;;5090745;28;20024;-71
2022/09/07 03:50:15;;;;;;;6.55;5.32;;;18.50;99.90;;;;;;5091405;28;20107;-71
2022/09/07 03:52:41;;;;;;;7.93;5.22;;;18.50;99.90;;;;;;5090680;28;20032;-71
2022/09/07 03:55:07;;;;;;;5.90;4.78;;;18.50;99.90;;;;;;5091285;28;20016;-71
2022/09/07 03:57:33;;;;;;;8.85;5.60;;;18.50;99.90;;;;;;5091296;28;20038;-71
2022/09/07 03:59:58;;;;;;;8.40;5.15;;;18.50;99.90;;;;;;5090936;28;20114;-71
2022/09/07 04:02:24;;;;;;;8.90;5.65;;;18.40;99.90;;;;;;5091315;28;20333;-71
2022/09/07 04:04:50;;;;;;;8.85;5.38;;;18.40;99.90;;;;;;5090430;28;20078;-72
2022/09/07 04:07:15;;;;;;;8.30;5.90;;;18.40;99.90;;;;;;5091755;28;20059;-71
2022/09/07 04:09:41;;;;;;;9.27;5.80;;;18.40;99.90;;;;;;5094472;28;20024;-70
2022/09/07 04:12:07;;;;;;;6.63;5.63;;;18.30;99.90;;;;;;5095033;28;20082;-70
2022/09/07 04:14:32;;;;;;;7.75;6.03;;;18.30;99.90;;;;;;5095144;28;20028;-70
2022/09/07 04:16:58;;;;;;;7.90;6.13;;;18.30;99.90;;;;;;5094675;28;20028;-71
2022/09/07 04:19:24;;;;;;;8.27;6.47;;;18.30;99.90;;;;;;5095111;28;20082;-70
2022/09/07 04:21:50;;;;;;;12.43;6.78;;;18.30;99.90;;;;;;5094253;28;20388;-71
2022/09/07 04:24:17;;;;;;;13.60;7.25;;;18.30;99.90;;;;;;5094878;28;20063;-70
2022/09/07 04:26:43;;;;;;;15.73;7.72;;;18.30;99.90;;;;;;5094646;28;20131;-71
2022/09/07 04:29:10;;;;;;;10.57;7.50;;;18.30;99.90;;;;;;5094906;28;20162;-70
2022/09/07 04:31:36;;;;;;;11.35;7.55;;;18.40;99.90;;;;;;5094921;28;20123;-70
2022/09/07 04:34:04;;;;;;;12.93;8.18;;;18.40;99.90;;;;;;5094259;28;20024;-71
2022/09/07 04:36:30;;;;;;;9.93;7.60;;;18.40;99.90;;;;;;5093674;28;20032;-71
2022/09/07 04:39:01;;;;;;;10.50;7.80;;;18.40;99.90;;;;;;5094220;28;20034;-71
2022/09/07 04:41:29;;;;;;;13.63;8.68;;;18.40;99.90;;;;;;5094970;28;20480;-71
2022/09/07 04:43:57;;;;;;;12.13;7.95;;;18.40;99.90;;;;;;5094429;28;20499;-70
2022/09/07 04:46:25;;;;;;;10.95;7.90;;;18.50;99.90;;;;;;5096774;28;20059;-71
2022/09/07 04:48:56;;;;;;;11.32;8.23;;;18.50;99.90;;;;;;5097673;28;20031;-70
2022/09/07 04:51:24;;;;;;;11.50;7.97;;;18.50;99.90;;;;;;5100590;28;20036;-71
2022/09/07 04:53:52;;;;;;;11.82;8.77;;;18.50;99.90;;;;;;5103577;28;20186;-69
2022/09/07 04:56:19;;;;;;;13.48;8.40;;;18.50;99.90;;;;;;5093783;28;20472;-70
2022/09/07 04:58:45;;;;;;;14.48;8.60;;;18.40;99.90;;;;;;5074529;28;20035;-71
2022/09/07 05:01:14;;;;;;;12.75;8.07;;;18.50;99.90;;;;;;5092981;28;20039;-70
2022/09/07 05:03:39;;;;;;;11.70;7.90;;;18.50;99.90;;;;;;5092714;28;20024;-69
2022/09/07 05:06:06;;;;;;;10.10;7.63;;;18.50;99.90;;;;;;5092981;28;20046;-69
2022/09/07 05:08:40;;;;;;;10.35;7.93;;;18.60;99.90;;;;;;5093245;28;20111;-69
2022/09/07 05:11:07;;;;;;;11.88;7.65;;;18.60;99.90;;;;;;5092969;28;20032;-70
2022/09/07 05:13:32;;;;;;;12.55;8.13;;;18.70;99.90;;;;;;5092089;28;20039;-70
2022/09/07 05:15:59;;;;;;;8.95;8.00;;;18.70;99.90;;;;;;5084813;28;20032;-70
2022/09/07 05:18:26;;;;;;;10.60;8.05;;;18.60;99.90;;;;;;5085542;28;20127;-70
2022/09/07 05:20:52;;;;;;;10.73;8.02;;;18.60;99.90;;;;;;5063921;28;20024;-70
2022/09/07 05:23:17;;;;;;;11.90;7.80;;;18.60;99.90;;;;;;5092979;28;20380;-69
2022/09/07 05:25:45;;;;;;;12.20;8.07;;;18.50;99.90;;;;;;5092679;28;20089;-70
2022/09/07 05:28:11;;;;;;;13.52;8.85;;;18.60;99.90;;;;;;5092802;28;20408;-72
2022/09/07 05:30:37;;;;;;;11.20;7.80;;;18.60;99.90;;;;;;5092338;28;20086;-72
2022/09/07 05:33:04;;;;;;;11.52;7.90;;;18.60;99.90;;;;;;5092467;28;20481;-72
2022/09/07 05:35:30;;;;;;;11.43;7.93;;;18.60;99.90;;;;;;5093170;28;20115;-73
2022/09/07 05:37:55;;;;;;;12.90;7.95;;;18.80;99.90;;;;;;5092719;28;20107;-73
2022/09/07 05:40:21;;;;;;;10.02;7.53;;;18.80;99.90;;;;;;5091865;28;20108;-74
2022/09/07 05:42:47;;;;;;;10.27;7.28;;;18.80;99.90;;;;;;5092049;28;20081;-74
2022/09/07 05:45:12;;;;;;;10.90;7.60;;;18.80;99.90;;;;;;5092182;28;20384;-73
2022/09/07 05:47:38;;;;;;;12.15;8.20;;;18.90;99.90;;;;;;5092198;28;20035;-73
2022/09/07 05:50:08;;;;;;;9.40;7.35;;;18.90;99.90;;;;;;5090993;28;20034;-74
2022/09/07 05:52:34;;;;;;;11.43;7.85;;;19.00;99.90;;;;;;5079871;28;20062;-72
2022/09/07 05:55:00;;;;;;;9.23;7.70;;;19.00;99.90;;;;;;5080542;28;20040;-74
2022/09/07 05:57:25;;;;;;;9.35;7.38;;;19.00;99.90;;;;;;5081352;28;20354;-72
2022/09/07 05:59:51;;;;;;;8.38;7.22;;;19.10;99.90;;;;;;5086368;28;20024;-73
2022/09/07 06:02:17;;;;;;;8.50;7.20;;;19.10;99.90;;;;;;5092083;28;20047;-71
2022/09/07 06:04:42;;;;;;;8.70;6.88;;;19.20;99.90;;;;;;5092241;28;20024;-72
2022/09/07 06:07:12;;;;;;;9.05;7.60;;;19.20;99.90;;;;;;5092078;28;20034;-74
2022/09/07 06:09:38;;;;;;;7.93;6.85;;;19.30;99.90;;;;;;5088909;28;20042;-73
2022/09/07 06:12:04;;;;;;;8.32;7.45;;;19.40;99.90;;;;;;5091394;28;20032;-72
2022/09/07 06:14:31;;;;;;;9.45;7.28;;;19.50;99.90;;;;;;5091386;28;20020;-73
2022/09/07 06:16:56;;;;;;;9.07;7.25;;;19.60;99.90;;;;;;5090912;28;20024;-73
2022/09/07 06:19:22;;;;;;;11.43;6.97;;;19.70;99.90;;;;;;5079628;28;20158;-73
2022/09/07 06:21:48;;;;;;;9.05;7.07;;;19.90;99.90;;;;;;5071061;28;20035;-73
2022/09/07 06:24:13;;;;;;;8.43;6.32;;;19.90;99.90;;;;;;5072110;28;20043;-72
2022/09/07 06:26:39;;;;;;;8.63;6.28;;;19.90;99.90;;;;;;5072317;28;20039;-71
2022/09/07 06:29:07;;;;;;;10.75;7.32;;;19.90;99.90;;;;;;5073427;28;20036;-72
2022/09/07 06:31:33;;;;;;;9.93;6.97;;;20.00;99.90;;;;;;5090910;28;20055;-72
2022/09/07 06:33:59;;;;;;;12.80;7.30;;;20.10;99.90;;;;;;5090899;28;20024;-73
2022/09/07 06:36:26;;;;;;;8.55;7.28;;;20.30;99.90;;;;;;5090312;28;20111;-73
2022/09/07 06:38:57;;;;;;;9.32;6.35;;;20.50;99.60;;;;;;5089591;28;20034;-74
2022/09/07 06:41:28;;;;;;;10.25;7.22;;;20.70;99.20;;;;;;5091069;28;20050;-72
2022/09/07 06:43:56;;;;;;;8.68;6.95;;;20.90;98.00;;;;;;5091839;28;20024;-73
2022/09/07 06:46:22;;;;;;;10.68;6.80;;;21.20;97.50;;;;;;5091796;28;20356;-73
2022/09/07 06:48:54;;;;;;;7.00;5.60;;;21.50;96.70;;;;;;5098044;28;20468;-74
2022/09/07 06:51:25;;;;;;;7.00;6.03;;;21.80;95.40;;;;;;5104788;28;20024;-69
2022/09/07 06:53:52;;;;;;;7.53;6.25;;;22.10;94.40;;;;;;5083273;28;20036;-72
2022/09/07 06:56:18;;;;;;;8.57;5.70;;;22.40;93.00;;;;;;5072372;28;20116;-76
2022/09/07 06:58:43;;;;;;;8.38;6.38;;;22.80;92.30;;;;;;5071931;28;20032;-76
2022/09/07 07:01:18;;;;;;;7.22;6.20;;;23.40;90.60;;;;;;5071734;28;20127;-75
2022/09/07 07:03:44;;;;;;;8.43;5.90;;;24.20;86.50;;;;;;5078599;28;20020;-73
2022/09/07 07:06:11;;;;;;;8.75;5.85;;;24.90;82.40;;;;;;5091338;28;20409;-74
2022/09/07 07:08:37;;;;;;;7.03;5.50;;;25.70;78.20;;;;;;5091654;28;20154;-72
2022/09/07 07:11:06;;;;;;;6.65;5.07;;;26.40;74.10;;;;;;5091573;28;20032;-73
2022/09/07 07:13:33;;;;;;;6.07;4.57;;;27.20;70.30;;;;;;5091786;28;20054;-72
2022/09/07 07:16:06;;;;;;;6.28;4.57;;;27.80;67.60;;;;;;5091818;28;20119;-75
2022/09/07 07:18:32;;;;;;;6.97;4.65;;;28.60;64.60;;;;;;5091971;28;20032;-71
2022/09/07 07:21:10;;;;;;;5.75;5.10;;;29.20;61.10;;;;;;5091519;28;20028;-71
2022/09/07 07:23:36;;;;;;;6.63;4.50;;;29.80;59.50;;;;;;5092019;28;20078;-70
2022/09/07 07:26:04;;;;;;;4.80;3.97;;;30.20;58.00;;;;;;5091270;28;20050;-71
2022/09/07 07:28:30;;;;;;;7.22;4.55;;;30.10;57.30;;;;;;5091548;28;20024;-70
2022/09/07 07:31:00;;;;;;;6.15;4.75;;;29.80;56.50;;;;;;5090998;28;20071;-71
2022/09/07 07:33:34;;;;;;;5.65;5.07;;;29.80;56.80;;;;;;5091686;28;20115;-71
2022/09/07 07:36:20;;;;;;;5.55;4.50;;;29.40;56.70;;;;;;5091296;28;20085;-70
2022/09/07 07:38:48;;;;;;;7.00;5.03;;;29.10;57.20;;;;;;5091955;28;20098;-69
2022/09/07 07:41:16;;;;;;;7.95;5.03;;;29.20;57.70;;;;;;5091386;28;20054;-69
2022/09/07 07:43:42;;;;;;;7.93;4.90;;;29.20;57.30;;;;;;5094298;28;20046;-69
2022/09/07 07:46:11;;;;;;;5.72;5.13;;;29.60;56.80;;;;;;5095578;28;20024;-68
2022/09/07 07:48:36;;;;;;;4.68;3.97;;;30.00;55.00;;;;;;5096011;28;20380;-69
2022/09/07 07:51:07;;;;;;;4.38;3.97;;;30.30;54.90;;;;;;5095494;28;20077;-69
2022/09/07 07:53:33;;;;;;;;;;;30.30;54.70;;;;;;5096245;28;20103;-68
2022/09/07 07:56:00;;;;;;;5.35;4.28;;;30.00;54.40;;;;;;5094938;28;19908;-68
2022/09/07 07:58:27;;;;;;;5.63;4.15;;;30.00;55.00;;;;;;5095587;28;20064;-68
2022/09/07 08:00:53;;;;;;;5.47;4.18;;;30.10;54.70;;;;;;5095417;28;20047;-68
2022/09/07 08:03:20;;;;;;;4.15;3.75;;;30.90;55.20;;;;;;5095792;28;20107;-67
2022/09/07 08:05:45;;;;;;;4.78;3.47;;;31.90;52.70;;;;;;5095697;28;20028;-67
2022/09/07 08:08:11;;;;;;;7.05;4.47;;;32.50;50.70;;;;;;5095023;28;20432;-68
2022/09/07 08:10:37;;;;;;;4.70;4.10;;;33.20;49.20;;;;;;5095082;28;20358;-69
2022/09/07 08:13:03;;;;;;;8.45;5.45;;;33.70;48.30;;;;;;5094599;28;20032;-68
2022/09/07 08:15:30;;;;;;;7.05;4.50;;;34.20;46.50;;;;;;5094746;28;20039;-68
2022/09/07 08:17:56;;;;;;;5.07;4.07;;;34.30;46.30;;;;;;5094762;28;20388;-69
2022/09/07 08:20:22;;;;;;;5.55;3.70;;;34.60;46.00;;;;;;5095327;28;20060;-69
2022/09/07 08:22:51;;;;;;;4.53;3.97;;;34.90;45.10;;;;;;5095298;28;20071;-68
2022/09/07 08:25:18;;;;;;;4.47;3.37;;;35.10;44.40;;;;;;5093755;28;20310;-69
2022/09/07 08:27:43;;;;;;;5.57;3.88;;;35.40;44.90;;;;;;5094781;28;20024;-69
2022/09/07 08:30:09;;;;;;;5.82;4.10;;;35.50;43.20;;;;;;5094427;28;20397;-69
2022/09/07 08:32:35;;;;;;;5.20;3.80;;;35.40;43.30;;;;;;5094405;28;20028;-70
2022/09/07 08:35:02;;;;;;;4.90;3.60;;;34.80;44.30;;;;;;5094273;28;20042;-69
2022/09/07 08:37:28;;;;;;;4.45;3.72;;;34.30;44.80;;;;;;5094934;28;20103;-68
2022/09/07 08:39:54;;;;;;;4.28;3.38;;;34.30;44.80;;;;;;5094602;28;20074;-70
2022/09/07 08:43:04;;;;;;;4.28;3.85;;;33.80;45.60;;;;;;5076493;28;20028;-71
2022/09/07 08:45:44;;;;;;;7.30;5.50;;;33.30;45.80;;;;;;5094946;28;20028;-69
2022/09/07 08:48:13;;;;;;;7.18;4.03;;;32.70;47.20;;;;;;5094526;28;20039;-69
2022/09/07 08:50:56;;;;;;;4.77;4.10;;;32.10;48.00;;;;;;5094727;28;20027;-68
2022/09/07 08:53:23;;;;;;;5.65;4.60;;;31.60;49.60;;;;;;5094096;28;20031;-68
2022/09/07 08:56:12;;;;;;;4.25;3.85;;;31.30;50.10;;;;;;5094490;28;20028;-68
2022/09/07 08:58:47;;;;;;;6.18;4.20;;;30.90;50.90;;;;;;5094174;28;20028;-68
2022/09/07 09:01:18;;;;;;;5.43;4.10;;;30.50;51.90;;;;;;5094102;28;20075;-69
2022/09/07 09:03:46;;;;;;;5.22;4.38;;;30.30;53.00;;;;;;5094509;28;20032;-69
2022/09/07 09:06:34;;;;;;;6.32;4.95;;;30.00;52.90;;;;;;5093960;28;20099;-69
2022/09/07 09:09:30;;;;;;;4.93;4.40;;;29.70;53.10;;;;;;5094334;28;20107;-69
2022/09/07 09:12:11;;;;;;;8.10;4.03;;;29.50;54.60;;;;;;5087727;28;20036;-68
2022/09/07 09:15:04;;;;;;;8.63;3.80;;;29.30;55.50;;;;;;5093933;28;20028;-68
2022/09/07 09:17:39;;;;;;;4.35;3.78;;;29.10;55.30;;;;;;5094102;28;20055;-68
2022/09/07 09:20:05;;;;;;;4.10;3.67;;;28.90;55.70;;;;;;5093822;28;20024;-69
2022/09/07 09:22:30;;;;;;;5.70;4.22;;;28.70;55.80;;;;;;5093872;28;20050;-69
2022/09/07 09:25:14;;;;;;;5.35;4.57;;;28.60;56.40;;;;;;5093982;28;20073;-69
2022/09/07 09:27:40;;;;;;;4.90;4.10;;;28.40;56.80;;;;;;5094094;28;20079;-69
2022/09/07 09:30:23;;;;;;;4.70;4.03;;;28.40;57.40;;;;;;5093017;28;20048;-70
2022/09/07 09:32:51;;;;;;;5.07;3.90;;;28.40;57.80;;;;;;5093834;28;20452;-69
2022/09/07 09:35:34;;;;;;;4.70;3.45;;;28.50;57.70;;;;;;5093492;28;20082;-68
2022/09/07 09:38:03;;;;;;;6.55;3.72;;;28.50;58.10;;;;;;5093398;28;20040;-69
2022/09/07 09:40:34;;;;;;;6.03;4.30;;;28.60;57.80;;;;;;5093869;28;20020;-67
2022/09/07 09:43:19;;;;;;;5.32;3.80;;;28.60;56.80;;;;;;5093506;28;20447;-70
2022/09/07 09:45:51;;;;;;;3.63;3.15;;;28.60;57.30;;;;;;5093812;28;20046;-69
2022/09/07 09:48:35;;;;;;;3.72;3.17;;;28.60;57.30;;;;;;5093093;28;20024;-69
2022/09/07 09:51:03;;;;;;;5.43;3.67;;;28.60;57.70;;;;;;5092956;28;20029;-67
2022/09/07 09:53:32;;;;;;;4.32;3.20;;;28.60;57.30;;;;;;5093020;28;20023;-71
2022/09/07 09:56:00;;;;;;;3.90;3.42;;;28.80;57.90;;;;;;5091883;28;20464;-71
2022/09/07 09:58:44;;;;;;;4.60;3.65;;;28.90;56.70;;;;;;5091297;28;20020;-71
2022/09/07 10:01:31;;;;;;;5.30;3.42;;;28.70;55.80;;;;;;5081409;28;20132;-70
2022/09/07 10:04:16;;;;;;;3.88;3.05;;;28.80;56.90;;;;;;5093242;28;20420;-71
2022/09/07 10:06:50;;;;;;;5.55;3.70;;;28.70;56.60;;;;;;5092134;28;20089;-71
2022/09/07 10:09:19;;;;;;;5.55;3.33;;;28.90;57.30;;;;;;5092720;28;20036;-72
2022/09/07 10:11:48;;;;;;;4.45;3.88;;;29.00;56.30;;;;;;5092164;28;20020;-71
2022/09/07 10:14:33;;;;;;;5.30;3.75;;;29.00;55.80;;;;;;5074180;28;20066;-72
2022/09/07 10:17:00;;;;;;;5.38;3.70;;;29.00;55.40;;;;;;5091812;28;20032;-71
2022/09/07 10:19:34;;;;;;;5.60;3.35;;;28.90;55.70;;;;;;5091857;28;20460;-71
2022/09/07 10:22:31;;;;;;;3.75;3.33;;;29.00;55.80;;;;;;5092598;28;20058;-71
2022/09/07 10:24:59;;;;;;;7.93;3.35;;;29.00;56.00;;;;;;5092500;28;20517;-71
2022/09/07 10:27:30;;;;;;;4.70;3.78;;;29.10;56.60;;;;;;5090179;28;20048;-71
2022/09/07 10:29:56;;;;;;;3.65;3.35;;;29.10;56.10;;;;;;5091967;28;20078;-71
2022/09/07 10:32:40;;;;;;;3.50;3.13;;;29.20;55.50;;;;;;5091591;28;20024;-71
2022/09/07 10:35:22;;;;;;;3.20;2.90;;;29.20;55.50;;;;;;5072838;28;20027;-74
2022/09/07 10:38:15;;;;;;;3.55;2.85;;;29.30;55.70;;;;;;5090702;28;20036;-71
2022/09/07 10:40:50;;;;;;;3.50;3.15;;;29.30;54.90;;;;;;5088745;28;20055;-72
2022/09/07 10:43:39;;;;;;;3.78;2.78;;;29.30;55.20;;;;;;5087931;28;20023;-71
2022/09/07 10:46:48;;;;;;;3.50;2.90;;;29.30;55.20;;;;;;5089160;28;20095;-73
2022/09/07 10:49:28;;;;;;;5.53;3.10;;;29.40;55.00;;;;;;5028001;28;20092;-71
2022/09/07 10:52:33;;;;;;;4.93;2.97;;;29.50;55.20;;;;;;5086781;28;20059;-71
2022/09/07 10:55:15;;;;;;;4.60;2.63;;;29.60;55.00;;;;;;5090242;28;20803;-71
2022/09/07 10:58:08;;;;;;;3.20;2.90;;;29.70;54.60;;;;;;5088282;28;20042;-71
2022/09/07 11:00:54;;;;;;;3.58;3.00;;;29.80;54.60;;;;;;5084523;28;20105;-71
2022/09/07 11:03:41;;;;;;;4.88;3.50;;;29.90;54.80;;;;;;5086869;28;20028;-71
2022/09/07 11:06:16;;;;;;;3.95;3.10;;;29.80;53.60;;;;;;5089487;28;20028;-71
2022/09/07 11:09:04;;;;;;;3.95;3.20;;;29.60;54.10;;;;;;5085921;28;20032;-71
2022/09/07 11:11:40;;;;;;;3.58;3.00;;;29.50;54.10;;;;;;5089236;28;20016;-70
2022/09/07 11:14:15;;;;;;;6.22;3.70;;;29.50;54.80;;;;;;5091185;28;20047;-76
2022/09/07 11:16:50;;;;;;;4.97;3.10;;;29.50;54.10;;;;;;5091232;28;20060;-70
2022/09/07 11:19:21;;;;;;;3.35;3.05;;;29.50;55.10;;;;;;5090841;28;20376;-75
2022/09/07 11:22:12;;;;;;;9.73;3.35;;;29.60;55.00;;;;;;5088779;28;20438;-75
2022/09/07 11:24:57;;;;;;;3.95;2.70;;;29.60;54.50;;;;;;5089005;28;20709;-76
2022/09/07 11:27:30;;;;;;;6.05;3.00;;;29.60;54.00;;;;;;5071793;28;20028;-75
2022/09/07 11:30:12;;;;;;;2.97;2.65;;;29.60;53.80;;;;;;5090849;28;20040;-79
2022/09/07 11:32:47;;;;;;;5.55;2.75;;;29.70;54.00;;;;;;5087968;28;20476;-75
2022/09/07 11:35:16;;;;;;;3.40;3.03;;;29.70;53.90;;;;;;5085285;28;20449;-76
2022/09/07 11:37:56;;;;;;;3.20;2.90;;;29.70;53.60;;;;;;5089520;28;20057;-75
2022/09/07 11:40:30;;;;;;;4.67;3.40;;;29.80;53.90;;;;;;5084018;28;20106;-73
2022/09/07 11:43:34;;;;;;;7.03;2.47;;;29.80;53.70;;;;;;5078705;28;20078;-75
2022/09/07 11:46:06;;;;;;;3.40;2.95;;;29.90;54.10;;;;;;5062593;28;20086;-73
2022/09/07 11:49:05;;;;;;;4.25;2.95;;;30.00;54.00;;;;;;5083402;28;20169;-73
2022/09/07 11:51:37;;;;;;;3.17;2.80;;;29.90;53.40;;;;;;5085854;28;20101;-70
2022/09/07 11:54:26;;;;;;;3.90;3.05;;;29.90;53.60;;;;;;5090451;28;20024;-70
2022/09/07 11:57:24;;;;;;;4.03;2.92;;;30.00;53.40;;;;;;5070353;28;20090;-70
2022/09/07 12:00:06;;;;;;;3.92;2.70;;;30.10;53.30;;;;;;5090014;28;20044;-70
2022/09/07 12:02:35;;;;;;;3.63;3.10;;;30.20;53.80;;;;;;5090556;28;20118;-77
2022/09/07 12:05:06;;;;;;;5.28;3.25;;;30.20;52.80;;;;;;5089739;28;20020;-71
2022/09/07 12:07:41;;;;;;;4.53;3.28;;;30.20;52.90;;;;;;5090429;28;20445;-70
2022/09/07 12:10:51;;;;;;;8.18;3.05;;;30.20;53.00;;;;;;5055072;28;20020;-74
2022/09/07 12:13:41;;;;;;;4.65;3.08;;;30.20;52.30;;;;;;5048299;28;20038;-76
2022/09/07 12:16:36;;;;;;;4.75;3.10;;;30.20;52.80;;;;;;5089481;28;20103;-75
2022/09/07 12:19:24;;;;;;;4.82;3.28;;;30.30;53.10;;;;;;5089963;28;20032;-76
2022/09/07 12:21:50;;;;;;;3.00;2.70;;;30.30;52.90;;;;;;5090167;28;20024;-77
2022/09/07 12:24:34;;;;;;;4.25;2.65;;;30.30;52.70;;;;;;5089521;28;20027;-77
2022/09/07 12:27:19;;;;;;;6.63;3.42;;;30.20;52.70;;;;;;5089637;28;20028;-78
2022/09/07 12:29:46;;;;;;;4.80;3.08;;;30.10;52.40;;;;;;5089817;28;20067;-76
2022/09/07 12:32:12;;;;;;;4.35;3.95;;;29.90;52.30;;;;;;5093140;28;20020;-77
2022/09/07 12:34:49;;;;;;;3.90;2.97;;;29.70;52.40;;;;;;5093507;28;20098;-77
2022/09/07 12:37:15;;;;;;;3.45;2.80;;;29.70;53.30;;;;;;5092683;28;20426;-76
2022/09/07 12:39:43;;;;;;;3.38;3.10;;;29.60;53.60;;;;;;5092880;28;20021;-77
2022/09/07 12:42:11;;;;;;;4.32;3.10;;;29.60;53.80;;;;;;5093708;28;20081;-75
2022/09/07 12:44:37;;;;;;;3.45;2.70;;;29.50;53.80;;;;;;5095323;28;20098;-76
2022/09/07 12:47:28;;;;;;;3.15;2.85;;;29.40;53.60;;;;;;5071651;28;20033;-78
2022/09/07 12:50:05;;;;;;;3.97;3.22;;;29.30;53.90;;;;;;5097298;28;20024;-76
2022/09/07 12:52:46;;;;;;;4.32;2.85;;;29.30;54.10;;;;;;5070683;28;20027;-77
2022/09/07 12:55:33;;;;;;;3.45;3.03;;;29.20;53.80;;;;;;5103640;28;20034;-75
2022/09/07 12:58:18;;;;;;;4.78;2.85;;;29.10;53.70;;;;;;5097059;28;20074;-78
2022/09/07 13:00:49;;;;;;;4.18;3.50;;;29.10;55.00;;;;;;5092205;28;20034;-77
2022/09/07 13:03:45;;;;;;;3.85;2.78;;;29.00;55.20;;;;;;5085574;28;20016;-78
2022/09/07 13:06:32;;;;;;;4.50;3.05;;;28.90;54.50;;;;;;5085404;28;20453;-76
2022/09/07 13:09:27;;;;;;;5.70;3.22;;;28.80;54.70;;;;;;5093890;28;20024;-77
2022/09/07 13:11:53;;;;;;;6.30;3.38;;;28.60;54.70;;;;;;5095114;28;20035;-77
2022/09/07 13:14:24;;;;;;;4.05;3.20;;;28.50;54.80;;;;;;5089746;28;20035;-78
2022/09/07 13:17:26;;;;;;;3.95;3.25;;;28.50;55.20;;;;;;5093798;28;20027;-77
2022/09/07 13:19:54;;;;;;;3.40;3.05;;;28.50;55.40;;;;;;5088846;28;20079;-77
2022/09/07 13:22:29;;;;;;;5.20;2.97;;;28.40;55.30;;;;;;5085004;28;20039;-77
2022/09/07 13:24:58;;;;;;;5.93;2.63;;;28.40;55.20;;;;;;5094091;28;20024;-77
2022/09/07 13:27:46;;;;;;;4.30;3.33;;;28.40;55.50;;;;;;5093097;28;20051;-70
2022/09/07 13:30:14;;;;;;;4.22;3.30;;;28.40;55.80;;;;;;5093041;28;20036;-70
2022/09/07 13:32:41;;;;;;;4.90;3.10;;;28.40;56.20;;;;;;5093318;28;20105;-70
2022/09/07 13:35:23;;;;;;;3.80;3.20;;;28.40;56.10;;;;;;5092781;28;20468;-70
2022/09/07 13:37:58;;;;;;;5.47;3.65;;;28.40;55.40;;;;;;5073005;28;20025;-69
2022/09/07 13:40:32;;;;;;;3.88;3.08;;;28.40;55.30;;;;;;5054699;28;20032;-69